Euskara    
Meteorología y climatología de Navarra
Datos de la estación - Meteo Navarra

Estación de Urbasa GN

Altitud 886 m.


Datos desde el 22/11/2020 hasta el 23/11/2020 en horario solar
Los datos son PROVISIONALES

Anterior Página 1 de 1 Siguiente Descargar: Formato para Excel 2000 o superior   Formato csv   Formato para OpenOffice Calc
Fecha Temperatura Humedad relativa Radiación global Insolación Precipitación Vel. viento 10 m Vel. viento 10 m Dir. viento 10 m
°C % W/m² s l/m² m/s km/h °
22/11/2020 0:00 -3.3 95 0.0 0 0.0 0.5 1.7 118
22/11/2020 0:10 -3.4 95 0.0 0 0.0 0.4 1.3 143
22/11/2020 0:20 -3.5 95 0.0 0 0.0 0.2 0.5 145
22/11/2020 0:30 -3.4 95 0.0 0 0.0 0.2 0.8 122
22/11/2020 0:40 -3.3 95 0.0 0 0.0 0.5 1.9 119
22/11/2020 0:50 -3.2 96 0.0 0 0.0 0.4 1.3 111
22/11/2020 1:00 -3.3 96 0.0 0 0.0 0.7 2.6 102
22/11/2020 1:10 -3.4 96 0.0 0 0.0 0.2 0.7 165
22/11/2020 1:20 -3.4 96 0.0 0 0.0 0.2 0.6 154
22/11/2020 1:30 -3.7 95 0.0 0 0.0 0.3 1.1 251
22/11/2020 1:40 -3.8 95 0.0 0 0.0 0.0 0.0 0
22/11/2020 1:50 -3.7 96 0.0 0 0.0 0.0 0.1 114
22/11/2020 2:00 -3.9 95 0.0 0 0.0 0.1 0.4 210
22/11/2020 2:10 -3.7 96 0.0 0 0.0 0.3 0.9 232
22/11/2020 2:20 -3.7 95 0.0 0 0.0 0.7 2.4 251
22/11/2020 2:30 -3.9 95 0.0 0 0.0 0.3 1.1 138
22/11/2020 2:40 -3.7 95 0.0 0 0.0 0.2 0.5 231
22/11/2020 2:50 -3.8 95 0.0 0 0.0 0.0 0.0 0
22/11/2020 3:00 -3.9 95 0.0 0 0.0 0.1 0.2 240
22/11/2020 3:10 -4.1 95 0.0 0 0.0 0.3 1.0 254
22/11/2020 3:20 -4.2 95 0.0 0 0.0 0.0 0.0 0
22/11/2020 3:30 -4.1 96 0.0 0 0.0 0.0 0.0 0
22/11/2020 3:40 -4.1 96 0.0 0 0.0 0.0 0.0 0
22/11/2020 3:50 -4.3 96 0.0 0 0.0 0.0 0.0 0
22/11/2020 4:00 -4.3 96 0.0 0 0.0 0.1 0.3 130
22/11/2020 4:10 -4.4 96 0.0 0 0.0 0.0 0.0 0
22/11/2020 4:20 -4.4 96 0.0 0 0.0 0.0 0.0 0
22/11/2020 4:30 -4.6 96 0.0 0 0.0 0.0 0.0 0
22/11/2020 4:40 -4.3 96 0.0 0 0.0 0.0 0.0 0
22/11/2020 4:50 -4.4 96 0.0 0 0.0 0.0 0.1 267
22/11/2020 5:00 -4.4 96 0.0 0 0.0 0.1 0.5 210
22/11/2020 5:10 -4.5 96 0.0 0 0.0 0.0 0.0 241
22/11/2020 5:20 -4.8 96 0.0 0 0.0 0.0 0.0 0
22/11/2020 5:30 -4.8 96 0.0 0 0.0 0.1 0.3 241
22/11/2020 5:40 -4.8 96 0.0 0 0.0 0.0 0.0 0
22/11/2020 5:50 -4.7 96 0.0 0 0.0 0.0 0.0 0
22/11/2020 6:00 -4.8 96 0.0 0 0.0 0.0 0.1 261
22/11/2020 6:10 -4.8 96 0.0 0 0.0 0.0 0.1 261
22/11/2020 6:20 -4.9 95 0.0 0 0.0 0.0 0.0 0
22/11/2020 6:30 -4.9 96 0.0 0 0.0 0.2 0.6 94
22/11/2020 6:40 -5.0 95 0.0 0 0.0 0.3 1.2 57
22/11/2020 6:50 -4.8 96 0.0 0 0.0 0.0 0.0 0
22/11/2020 7:00 -5.1 95 0.0 0 0.0 0.1 0.2 71
22/11/2020 7:10 -5.1 95 0.0 0 0.0 0.1 0.4 74
22/11/2020 7:20 -5.1 95 0.0 0 0.0 0.1 0.3 114
22/11/2020 7:30 -5.1 95 0.0 0 0.0 0.0 0.1 109
22/11/2020 7:40 -5.0 95 9.2 0 0.0 0.1 0.2 87
22/11/2020 7:50 -4.9 95 35.5 116 0.0 0.0 0.0 87
22/11/2020 8:00 -4.4 96 185.8 600 0.0 0.0 0.1 27
22/11/2020 8:10 -3.1 96 212.0 600 0.0 0.0 0.0 0
22/11/2020 8:20 -2.3 96 220.7 600 0.0 0.0 0.0 0
22/11/2020 8:30 -0.9 94 226.0 600 0.0 0.0 0.0 0
22/11/2020 8:40 -0.6 89 239.3 600 0.0 0.0 0.0 0
22/11/2020 8:50 0.0 85 256.2 600 0.0 0.1 0.4 101
22/11/2020 9:00 1.5 83 371.2 600 0.0 0.1 0.4 87
22/11/2020 9:10 1.7 81 346.9 600 0.0 0.2 0.8 132
22/11/2020 9:20 2.5 80 314.2 600 0.0 0.1 0.4 153
22/11/2020 9:30 3.9 75 314.1 600 0.0 0.1 0.2 130
22/11/2020 9:40 4.5 75 333.0 600 0.0 0.4 1.5 117
22/11/2020 9:50 5.3 74 353.2 600 0.0 0.3 1.0 132
22/11/2020 10:00 6.0 59 372.0 600 0.0 0.9 3.1 154
22/11/2020 10:10 6.1 55 388.9 600 0.0 0.9 3.3 150
22/11/2020 10:20 6.9 55 404.8 600 0.0 0.8 2.7 131
22/11/2020 10:30 7.7 54 420.0 600 0.0 0.6 2.2 112
22/11/2020 10:40 8.6 51 432.1 600 0.0 0.6 2.2 123
22/11/2020 10:50 9.1 46 443.7 600 0.0 0.7 2.6 163
22/11/2020 11:00 9.4 45 453.6 600 0.0 0.7 2.5 176
22/11/2020 11:10 9.8 44 461.8 600 0.0 0.6 2.3 174
22/11/2020 11:20 10.2 43 469.2 600 0.0 0.4 1.6 163
22/11/2020 11:30 10.9 43 475.4 600 0.0 0.5 1.8 105
22/11/2020 11:40 11.2 43 479.3 600 0.0 0.6 2.3 131
22/11/2020 11:50 11.1 40 481.4 600 0.0 0.7 2.6 1
22/11/2020 12:00 10.9 40 483.8 600 0.0 1.6 5.6 358
22/11/2020 12:10 10.5 39 484.2 600 0.0 1.3 4.8 335
22/11/2020 12:20 10.1 39 479.9 600 0.0 1.8 6.6 337
22/11/2020 12:30 10.2 39 457.3 600 0.0 1.3 4.8 347
22/11/2020 12:40 10.7 38 463.3 600 0.0 1.9 6.8 338
22/11/2020 12:50 10.9 37 456.0 600 0.0 1.8 6.3 324
22/11/2020 13:00 10.9 39 454.0 600 0.0 1.8 6.5 325
22/11/2020 13:10 10.8 38 447.1 600 0.0 2.0 7.3 326
22/11/2020 13:20 10.8 38 431.4 600 0.0 1.4 5.1 345
22/11/2020 13:30 10.8 38 418.4 600 0.0 1.2 4.2 336
22/11/2020 13:40 10.8 38 405.1 600 0.0 1.8 6.5 323
22/11/2020 13:50 10.9 39 390.1 600 0.0 1.6 5.8 318
22/11/2020 14:00 11.2 39 370.7 600 0.0 1.5 5.4 310
22/11/2020 14:10 11.2 39 339.6 600 0.0 1.4 5.1 321
22/11/2020 14:20 11.2 41 325.3 600 0.0 0.8 3.0 310
22/11/2020 14:30 11.3 41 306.0 600 0.0 1.5 5.4 312
22/11/2020 14:40 11.4 41 269.8 600 0.0 1.2 4.4 305
22/11/2020 14:50 11.6 41 259.6 600 0.0 1.1 3.9 309
22/11/2020 15:00 11.3 43 235.0 600 0.0 1.0 3.5 298
22/11/2020 15:10 11.4 42 209.9 600 0.0 0.7 2.4 312
22/11/2020 15:20 11.2 43 183.9 600 0.0 1.2 4.3 301
22/11/2020 15:30 11.1 44 158.2 600 0.0 0.9 3.1 307
22/11/2020 15:40 10.9 45 131.2 600 0.0 0.7 2.4 329
22/11/2020 15:50 10.8 46 93.8 532 0.0 0.7 2.3 315
22/11/2020 16:00 10.4 47 24.2 0 0.0 0.9 3.1 311
22/11/2020 16:10 9.9 49 29.7 0 0.0 0.6 2.2 306
22/11/2020 16:20 8.8 55 19.0 174 0.0 0.1 0.4 10
22/11/2020 16:30 7.3 62 0.0 0 0.0 0.3 1.2 240
22/11/2020 16:40 6.4 66 0.0 0 0.0 0.3 1.0 237
22/11/2020 16:50 5.5 71 0.0 0 0.0 0.3 1.0 253
22/11/2020 17:00 4.6 75 0.0 0 0.0 0.0 0.1 279
22/11/2020 17:10 3.9 79 0.0 0 0.0 0.0 0.1 231
22/11/2020 17:20 3.3 81 0.0 0 0.0 0.0 0.0 0
22/11/2020 17:30 2.8 84 0.0 0 0.0 0.0 0.0 0
22/11/2020 17:40 2.4 85 0.0 0 0.0 0.0 0.0 237
22/11/2020 17:50 2.0 86 0.0 0 0.0 0.0 0.0 0
22/11/2020 18:00 1.6 87 0.0 0 0.0 0.0 0.1 248
22/11/2020 18:10 1.1 89 0.0 0 0.0 0.0 0.1 176
22/11/2020 18:20 1.1 89 0.0 0 0.0 0.0 0.0 322
22/11/2020 18:30 0.7 89 0.0 0 0.0 0.0 0.0 347
22/11/2020 18:40 0.3 90 0.0 0 0.0 0.0 0.1 251
22/11/2020 18:50 0.1 91 0.0 0 0.0 0.0 0.1 219
22/11/2020 19:00 -0.1 92 0.0 0 0.0 0.0 0.1 342
22/11/2020 19:10 -0.4 91 0.0 0 0.0 0.0 0.0 0
22/11/2020 19:20 -0.7 92 0.0 0 0.0 0.0 0.0 0
22/11/2020 19:30 -0.7 93 0.0 0 0.0 0.0 0.1 15
22/11/2020 19:40 -0.9 93 0.0 0 0.0 0.0 0.0 0
22/11/2020 19:50 -1.1 93 0.0 0 0.0 0.0 0.0 211
22/11/2020 20:00 -1.3 93 0.0 0 0.0 0.1 0.2 126
22/11/2020 20:10 -1.3 94 0.0 0 0.0 0.1 0.2 99
22/11/2020 20:20 -1.4 94 0.0 0 0.0 0.0 0.0 255
22/11/2020 20:30 -1.4 94 0.0 0 0.0 0.2 0.7 357
22/11/2020 20:40 -1.6 94 0.0 0 0.0 0.0 0.0 0
22/11/2020 20:50 -1.7 94 0.0 0 0.0 0.0 0.0 303
22/11/2020 21:00 -1.9 94 0.0 0 0.0 0.0 0.0 0
22/11/2020 21:10 -2.0 95 0.0 0 0.0 0.0 0.0 0
22/11/2020 21:20 -2.1 95 0.0 0 0.0 0.0 0.0 0
22/11/2020 21:30 -2.0 95 0.0 0 0.0 0.0 0.1 239
22/11/2020 21:40 -2.4 95 0.0 0 0.0 0.0 0.0 134
22/11/2020 21:50 -2.2 95 0.0 0 0.0 0.1 0.4 358
22/11/2020 22:00 -2.5 95 0.0 0 0.0 0.0 0.0 0
22/11/2020 22:10 -2.7 95 0.0 0 0.0 0.0 0.0 324
22/11/2020 22:20 -2.7 95 0.0 0 0.0 0.0 0.0 0
22/11/2020 22:30 -2.7 96 0.0 0 0.0 0.0 0.0 0
22/11/2020 22:40 -2.9 96 0.0 0 0.0 0.0 0.0 0
22/11/2020 22:50 -3.0 96 0.0 0 0.0 0.0 0.0 0
22/11/2020 23:00 -3.1 96 0.0 0 0.0 0.1 0.3 61
22/11/2020 23:10 -3.1 96 0.0 0 0.0 0.0 0.0 0
22/11/2020 23:20 -3.2 96 0.0 0 0.0 0.1 0.2 252
22/11/2020 23:30 -3.4 96 0.0 0 0.0 0.1 0.3 189
22/11/2020 23:40 -3.3 96 0.0 0 0.0 0.0 0.1 327
22/11/2020 23:50 -3.2 96 0.0 0 0.0 0.1 0.2 9
Anterior Página 1 de 1 Siguiente

NOTA: Tipo de datos según el color:
   - Valores diarios o 10 minutos correctos
   - Valores diarios calculados a partir de un número de datos 10 minutos menor que 144 y mayor que 120, o de un número de datos semihorarios menor que 48 y mayor que 40 (caso de las estaciones de INTIA Y Ministerio)
   - Valores diez minutos estimados


Contacto        Enlaces        Aviso legal